sensor_id;sensor_type;location;lat;lon;timestamp;P1;durP1;ratioP1;P2;durP2;ratioP2
6757;SDS011;3416;53.074;8.822;2023-01-30T00:01:26;59.85;;;31.08;;
6757;SDS011;3416;53.074;8.822;2023-01-30T00:03:55;62.50;;;36.03;;
6757;SDS011;3416;53.074;8.822;2023-01-30T00:06:22;46.33;;;31.42;;
6757;SDS011;3416;53.074;8.822;2023-01-30T00:08:49;62.58;;;33.08;;
6757;SDS011;3416;53.074;8.822;2023-01-30T00:11:17;48.70;;;31.13;;
6757;SDS011;3416;53.074;8.822;2023-01-30T00:13:45;58.67;;;33.75;;
6757;SDS011;3416;53.074;8.822;2023-01-30T00:16:13;61.22;;;35.15;;
6757;SDS011;3416;53.074;8.822;2023-01-30T00:18:40;58.58;;;31.83;;
6757;SDS011;3416;53.074;8.822;2023-01-30T00:21:10;51.65;;;32.65;;
6757;SDS011;3416;53.074;8.822;2023-01-30T00:23:38;65.75;;;37.17;;
6757;SDS011;3416;53.074;8.822;2023-01-30T00:26:06;63.85;;;31.23;;
6757;SDS011;3416;53.074;8.822;2023-01-30T00:28:34;59.80;;;35.83;;
6757;SDS011;3416;53.074;8.822;2023-01-30T00:31:01;59.67;;;35.28;;
6757;SDS011;3416;53.074;8.822;2023-01-30T00:33:29;64.47;;;34.90;;
6757;SDS011;3416;53.074;8.822;2023-01-30T00:35:56;59.30;;;34.03;;
6757;SDS011;3416;53.074;8.822;2023-01-30T00:38:25;64.65;;;35.50;;
6757;SDS011;3416;53.074;8.822;2023-01-30T00:40:52;61.85;;;36.45;;
6757;SDS011;3416;53.074;8.822;2023-01-30T00:43:19;66.18;;;35.95;;
6757;SDS011;3416;53.074;8.822;2023-01-30T00:46:04;68.47;;;36.53;;
6757;SDS011;3416;53.074;8.822;2023-01-30T00:48:54;73.10;;;40.45;;
6757;SDS011;3416;53.074;8.822;2023-01-30T00:51:21;62.13;;;37.25;;
6757;SDS011;3416;53.074;8.822;2023-01-30T00:53:49;67.47;;;36.60;;
6757;SDS011;3416;53.074;8.822;2023-01-30T00:56:18;54.67;;;34.35;;
6757;SDS011;3416;53.074;8.822;2023-01-30T00:58:45;62.60;;;38.85;;
6757;SDS011;3416;53.074;8.822;2023-01-30T01:01:12;60.13;;;38.10;;
6757;SDS011;3416;53.074;8.822;2023-01-30T01:03:39;68.35;;;38.33;;
6757;SDS011;3416;53.074;8.822;2023-01-30T01:06:06;56.60;;;36.05;;
6757;SDS011;3416;53.074;8.822;2023-01-30T01:08:33;63.95;;;37.50;;
6757;SDS011;3416;53.074;8.822;2023-01-30T01:11:01;67.60;;;36.38;;
6757;SDS011;3416;53.074;8.822;2023-01-30T01:13:28;61.30;;;35.63;;
6757;SDS011;3416;53.074;8.822;2023-01-30T01:15:55;61.90;;;36.25;;
6757;SDS011;3416;53.074;8.822;2023-01-30T01:18:22;63.13;;;33.80;;
6757;SDS011;3416;53.074;8.822;2023-01-30T01:20:49;53.05;;;32.65;;
6757;SDS011;3416;53.074;8.822;2023-01-30T01:23:16;53.42;;;33.28;;
6757;SDS011;3416;53.074;8.822;2023-01-30T01:25:43;52.28;;;32.28;;
6757;SDS011;3416;53.074;8.822;2023-01-30T01:28:12;63.72;;;34.85;;
6757;SDS011;3416;53.074;8.822;2023-01-30T01:30:39;58.85;;;34.30;;
6757;SDS011;3416;53.074;8.822;2023-01-30T01:33:05;58.00;;;33.25;;
6757;SDS011;3416;53.074;8.822;2023-01-30T01:35:32;54.28;;;33.83;;
6757;SDS011;3416;53.074;8.822;2023-01-30T01:37:59;64.97;;;35.15;;
6757;SDS011;3416;53.074;8.822;2023-01-30T01:40:26;53.53;;;31.73;;
6757;SDS011;3416;53.074;8.822;2023-01-30T01:43:16;59.72;;;34.45;;
6757;SDS011;3416;53.074;8.822;2023-01-30T01:45:45;54.88;;;33.80;;
6757;SDS011;3416;53.074;8.822;2023-01-30T01:48:15;54.25;;;32.13;;
6757;SDS011;3416;53.074;8.822;2023-01-30T01:50:48;51.33;;;33.00;;
6757;SDS011;3416;53.074;8.822;2023-01-30T01:53:20;52.92;;;30.77;;
6757;SDS011;3416;53.074;8.822;2023-01-30T01:55:51;49.30;;;31.90;;
6757;SDS011;3416;53.074;8.822;2023-01-30T01:58:24;56.33;;;31.95;;
6757;SDS011;3416;53.074;8.822;2023-01-30T02:00:55;51.33;;;31.48;;
6757;SDS011;3416;53.074;8.822;2023-01-30T02:03:24;55.03;;;34.25;;
6757;SDS011;3416;53.074;8.822;2023-01-30T02:05:54;62.03;;;34.28;;
6757;SDS011;3416;53.074;8.822;2023-01-30T02:08:25;54.17;;;33.92;;
6757;SDS011;3416;53.074;8.822;2023-01-30T02:10:55;58.75;;;38.15;;
6757;SDS011;3416;53.074;8.822;2023-01-30T02:13:27;66.40;;;38.13;;
6757;SDS011;3416;53.074;8.822;2023-01-30T02:15:54;67.30;;;38.03;;
6757;SDS011;3416;53.074;8.822;2023-01-30T02:18:22;65.15;;;37.85;;
6757;SDS011;3416;53.074;8.822;2023-01-30T02:20:54;60.95;;;34.33;;
6757;SDS011;3416;53.074;8.822;2023-01-30T02:26:45;66.05;;;33.83;;
6757;SDS011;3416;53.074;8.822;2023-01-30T02:32:35;59.25;;;36.13;;
6757;SDS011;3416;53.074;8.822;2023-01-30T02:35:09;67.15;;;34.90;;
6757;SDS011;3416;53.074;8.822;2023-01-30T02:37:46;61.40;;;36.38;;
6757;SDS011;3416;53.074;8.822;2023-01-30T02:40:32;62.97;;;36.58;;
6757;SDS011;3416;53.074;8.822;2023-01-30T02:43:07;64.93;;;36.85;;
6757;SDS011;3416;53.074;8.822;2023-01-30T02:45:45;57.67;;;34.42;;
6757;SDS011;3416;53.074;8.822;2023-01-30T02:48:22;60.13;;;32.80;;
6757;SDS011;3416;53.074;8.822;2023-01-30T02:50:53;65.90;;;33.67;;
6757;SDS011;3416;53.074;8.822;2023-01-30T02:53:24;50.83;;;31.05;;
6757;SDS011;3416;53.074;8.822;2023-01-30T02:55:52;55.33;;;30.38;;
6757;SDS011;3416;53.074;8.822;2023-01-30T02:58:19;51.83;;;29.60;;
6757;SDS011;3416;53.074;8.822;2023-01-30T03:01:02;49.20;;;31.35;;
6757;SDS011;3416;53.074;8.822;2023-01-30T03:03:42;49.53;;;29.40;;
6757;SDS011;3416;53.074;8.822;2023-01-30T03:06:29;53.22;;;30.77;;
6757;SDS011;3416;53.074;8.822;2023-01-30T03:09:07;52.63;;;28.60;;
6757;SDS011;3416;53.074;8.822;2023-01-30T03:11:43;45.92;;;28.77;;
6757;SDS011;3416;53.074;8.822;2023-01-30T03:14:14;45.17;;;28.23;;
6757;SDS011;3416;53.074;8.822;2023-01-30T03:16:47;47.25;;;28.48;;
6757;SDS011;3416;53.074;8.822;2023-01-30T03:19:18;45.97;;;27.02;;
6757;SDS011;3416;53.074;8.822;2023-01-30T03:21:46;42.10;;;26.23;;
6757;SDS011;3416;53.074;8.822;2023-01-30T03:24:14;43.20;;;25.73;;
6757;SDS011;3416;53.074;8.822;2023-01-30T03:26:45;37.20;;;23.63;;
6757;SDS011;3416;53.074;8.822;2023-01-30T03:29:17;39.63;;;23.27;;
6757;SDS011;3416;53.074;8.822;2023-01-30T03:31:44;37.85;;;23.42;;
6757;SDS011;3416;53.074;8.822;2023-01-30T03:34:11;41.13;;;23.80;;
6757;SDS011;3416;53.074;8.822;2023-01-30T03:36:39;37.30;;;23.65;;
6757;SDS011;3416;53.074;8.822;2023-01-30T03:39:06;43.42;;;26.02;;
6757;SDS011;3416;53.074;8.822;2023-01-30T03:41:33;41.60;;;22.90;;
6757;SDS011;3416;53.074;8.822;2023-01-30T03:44:00;37.13;;;21.50;;
6757;SDS011;3416;53.074;8.822;2023-01-30T03:46:27;38.90;;;23.13;;
6757;SDS011;3416;53.074;8.822;2023-01-30T03:48:55;35.13;;;23.02;;
6757;SDS011;3416;53.074;8.822;2023-01-30T03:51:21;34.78;;;21.50;;
6757;SDS011;3416;53.074;8.822;2023-01-30T03:53:50;37.42;;;22.73;;
6757;SDS011;3416;53.074;8.822;2023-01-30T03:56:16;32.28;;;22.02;;
6757;SDS011;3416;53.074;8.822;2023-01-30T03:58:43;34.42;;;20.20;;
6757;SDS011;3416;53.074;8.822;2023-01-30T04:01:10;30.73;;;19.80;;
6757;SDS011;3416;53.074;8.822;2023-01-30T04:03:37;30.95;;;20.27;;
6757;SDS011;3416;53.074;8.822;2023-01-30T04:06:04;31.70;;;20.38;;
6757;SDS011;3416;53.074;8.822;2023-01-30T04:08:31;34.35;;;21.52;;
6757;SDS011;3416;53.074;8.822;2023-01-30T04:10:59;30.38;;;19.75;;
6757;SDS011;3416;53.074;8.822;2023-01-30T04:13:26;34.83;;;21.15;;
6757;SDS011;3416;53.074;8.822;2023-01-30T04:15:52;27.67;;;19.23;;
6757;SDS011;3416;53.074;8.822;2023-01-30T04:18:42;27.70;;;17.65;;
6757;SDS011;3416;53.074;8.822;2023-01-30T04:21:09;29.98;;;17.90;;
6757;SDS011;3416;53.074;8.822;2023-01-30T04:23:37;24.27;;;16.88;;
6757;SDS011;3416;53.074;8.822;2023-01-30T04:26:05;26.17;;;17.23;;
6757;SDS011;3416;53.074;8.822;2023-01-30T04:28:33;22.40;;;14.45;;
6757;SDS011;3416;53.074;8.822;2023-01-30T04:31:00;22.90;;;14.85;;
6757;SDS011;3416;53.074;8.822;2023-01-30T04:33:27;22.08;;;12.63;;
6757;SDS011;3416;53.074;8.822;2023-01-30T04:35:54;24.65;;;11.32;;
6757;SDS011;3416;53.074;8.822;2023-01-30T04:38:23;11.23;;;8.68;;
6757;SDS011;3416;53.074;8.822;2023-01-30T04:40:51;10.90;;;5.55;;
6757;SDS011;3416;53.074;8.822;2023-01-30T04:43:20;7.25;;;3.40;;
6757;SDS011;3416;53.074;8.822;2023-01-30T04:45:49;7.30;;;3.47;;
6757;SDS011;3416;53.074;8.822;2023-01-30T04:48:17;6.75;;;2.58;;
6757;SDS011;3416;53.074;8.822;2023-01-30T04:50:46;3.05;;;2.15;;
6757;SDS011;3416;53.074;8.822;2023-01-30T04:53:14;3.67;;;2.50;;
6757;SDS011;3416;53.074;8.822;2023-01-30T04:55:42;4.25;;;2.13;;
6757;SDS011;3416;53.074;8.822;2023-01-30T04:58:09;8.82;;;1.75;;
6757;SDS011;3416;53.074;8.822;2023-01-30T05:00:37;5.82;;;1.95;;
6757;SDS011;3416;53.074;8.822;2023-01-30T05:03:04;4.30;;;2.22;;
6757;SDS011;3416;53.074;8.822;2023-01-30T05:05:31;11.63;;;2.05;;
6757;SDS011;3416;53.074;8.822;2023-01-30T05:07:59;10.05;;;2.50;;
6757;SDS011;3416;53.074;8.822;2023-01-30T05:10:26;6.38;;;1.40;;
6757;SDS011;3416;53.074;8.822;2023-01-30T05:12:52;5.50;;;1.80;;
6757;SDS011;3416;53.074;8.822;2023-01-30T05:15:19;4.15;;;1.90;;
6757;SDS011;3416;53.074;8.822;2023-01-30T05:17:47;11.60;;;2.63;;
6757;SDS011;3416;53.074;8.822;2023-01-30T05:20:14;7.15;;;2.95;;
6757;SDS011;3416;53.074;8.822;2023-01-30T05:22:41;10.43;;;3.35;;
6757;SDS011;3416;53.074;8.822;2023-01-30T05:25:11;5.45;;;2.70;;
6757;SDS011;3416;53.074;8.822;2023-01-30T05:27:44;13.43;;;3.35;;
6757;SDS011;3416;53.074;8.822;2023-01-30T05:30:10;12.27;;;3.60;;
6757;SDS011;3416;53.074;8.822;2023-01-30T05:32:37;15.90;;;3.30;;
6757;SDS011;3416;53.074;8.822;2023-01-30T05:35:06;8.02;;;3.80;;
6757;SDS011;3416;53.074;8.822;2023-01-30T05:37:33;11.75;;;3.67;;
6757;SDS011;3416;53.074;8.822;2023-01-30T05:40:02;27.98;;;3.78;;
6757;SDS011;3416;53.074;8.822;2023-01-30T05:42:30;11.45;;;3.65;;
6757;SDS011;3416;53.074;8.822;2023-01-30T05:44:57;14.80;;;5.65;;
6757;SDS011;3416;53.074;8.822;2023-01-30T05:47:24;16.15;;;5.35;;
6757;SDS011;3416;53.074;8.822;2023-01-30T05:49:51;26.92;;;4.90;;
6757;SDS011;3416;53.074;8.822;2023-01-30T05:52:19;11.23;;;3.45;;
6757;SDS011;3416;53.074;8.822;2023-01-30T05:54:46;22.02;;;5.15;;
6757;SDS011;3416;53.074;8.822;2023-01-30T05:57:12;20.10;;;4.93;;
6757;SDS011;3416;53.074;8.822;2023-01-30T05:59:39;21.70;;;5.93;;
6757;SDS011;3416;53.074;8.822;2023-01-30T06:02:07;26.73;;;4.28;;
6757;SDS011;3416;53.074;8.822;2023-01-30T06:04:33;29.00;;;5.00;;
6757;SDS011;3416;53.074;8.822;2023-01-30T06:07:01;14.80;;;4.25;;
6757;SDS011;3416;53.074;8.822;2023-01-30T06:09:29;32.70;;;6.18;;
6757;SDS011;3416;53.074;8.822;2023-01-30T06:11:56;32.95;;;8.43;;
6757;SDS011;3416;53.074;8.822;2023-01-30T06:14:23;20.02;;;4.70;;
6757;SDS011;3416;53.074;8.822;2023-01-30T06:16:50;14.73;;;4.65;;
6757;SDS011;3416;53.074;8.822;2023-01-30T06:19:17;31.13;;;6.78;;
6757;SDS011;3416;53.074;8.822;2023-01-30T06:21:44;17.98;;;6.10;;
6757;SDS011;3416;53.074;8.822;2023-01-30T06:24:11;16.55;;;5.07;;
6757;SDS011;3416;53.074;8.822;2023-01-30T06:26:39;26.65;;;5.55;;
6757;SDS011;3416;53.074;8.822;2023-01-30T06:29:06;27.05;;;5.15;;
6757;SDS011;3416;53.074;8.822;2023-01-30T06:31:33;23.55;;;6.43;;
6757;SDS011;3416;53.074;8.822;2023-01-30T06:34:00;12.05;;;4.60;;
6757;SDS011;3416;53.074;8.822;2023-01-30T06:36:27;30.15;;;7.50;;
6757;SDS011;3416;53.074;8.822;2023-01-30T06:38:54;16.08;;;6.03;;
6757;SDS011;3416;53.074;8.822;2023-01-30T06:41:21;27.05;;;7.32;;
6757;SDS011;3416;53.074;8.822;2023-01-30T06:43:49;20.70;;;8.30;;
6757;SDS011;3416;53.074;8.822;2023-01-30T06:46:16;37.13;;;5.78;;
6757;SDS011;3416;53.074;8.822;2023-01-30T06:48:43;21.38;;;4.40;;
6757;SDS011;3416;53.074;8.822;2023-01-30T06:51:10;35.15;;;6.35;;
6757;SDS011;3416;53.074;8.822;2023-01-30T06:53:37;18.17;;;5.30;;
6757;SDS011;3416;53.074;8.822;2023-01-30T06:56:04;26.13;;;6.40;;
6757;SDS011;3416;53.074;8.822;2023-01-30T06:58:31;21.00;;;7.18;;
6757;SDS011;3416;53.074;8.822;2023-01-30T07:00:59;23.90;;;6.97;;
6757;SDS011;3416;53.074;8.822;2023-01-30T07:03:27;23.85;;;5.55;;
6757;SDS011;3416;53.074;8.822;2023-01-30T07:05:55;22.60;;;6.87;;
6757;SDS011;3416;53.074;8.822;2023-01-30T07:08:21;23.60;;;5.25;;
6757;SDS011;3416;53.074;8.822;2023-01-30T07:10:48;23.38;;;6.43;;
6757;SDS011;3416;53.074;8.822;2023-01-30T07:13:15;35.50;;;5.72;;
6757;SDS011;3416;53.074;8.822;2023-01-30T07:15:43;18.85;;;6.25;;
6757;SDS011;3416;53.074;8.822;2023-01-30T07:18:11;23.40;;;4.70;;
6757;SDS011;3416;53.074;8.822;2023-01-30T07:20:38;34.95;;;5.70;;
6757;SDS011;3416;53.074;8.822;2023-01-30T07:23:06;24.58;;;6.57;;
6757;SDS011;3416;53.074;8.822;2023-01-30T07:25:33;21.83;;;5.03;;
6757;SDS011;3416;53.074;8.822;2023-01-30T07:28:00;17.63;;;4.90;;
6757;SDS011;3416;53.074;8.822;2023-01-30T07:30:28;23.08;;;4.50;;
6757;SDS011;3416;53.074;8.822;2023-01-30T07:32:57;17.23;;;5.20;;
6757;SDS011;3416;53.074;8.822;2023-01-30T07:35:26;19.10;;;6.28;;
6757;SDS011;3416;53.074;8.822;2023-01-30T07:37:54;12.20;;;4.40;;
6757;SDS011;3416;53.074;8.822;2023-01-30T07:40:22;22.98;;;4.45;;
6757;SDS011;3416;53.074;8.822;2023-01-30T07:42:59;17.10;;;4.28;;
6757;SDS011;3416;53.074;8.822;2023-01-30T07:45:28;27.45;;;6.85;;
6757;SDS011;3416;53.074;8.822;2023-01-30T07:48:00;21.92;;;4.15;;
6757;SDS011;3416;53.074;8.822;2023-01-30T07:50:28;27.75;;;5.43;;
6757;SDS011;3416;53.074;8.822;2023-01-30T07:52:55;14.90;;;4.50;;
6757;SDS011;3416;53.074;8.822;2023-01-30T07:55:22;22.15;;;5.32;;
6757;SDS011;3416;53.074;8.822;2023-01-30T07:57:49;18.02;;;4.38;;
6757;SDS011;3416;53.074;8.822;2023-01-30T08:00:17;39.03;;;6.07;;
6757;SDS011;3416;53.074;8.822;2023-01-30T08:02:44;20.20;;;6.25;;
6757;SDS011;3416;53.074;8.822;2023-01-30T08:07:42;27.73;;;5.63;;
6757;SDS011;3416;53.074;8.822;2023-01-30T08:10:11;18.52;;;4.75;;
6757;SDS011;3416;53.074;8.822;2023-01-30T08:12:39;18.25;;;5.30;;
6757;SDS011;3416;53.074;8.822;2023-01-30T08:15:06;26.85;;;6.65;;
6757;SDS011;3416;53.074;8.822;2023-01-30T08:17:34;21.90;;;4.55;;
6757;SDS011;3416;53.074;8.822;2023-01-30T08:20:01;15.25;;;4.13;;
6757;SDS011;3416;53.074;8.822;2023-01-30T08:22:29;19.30;;;4.05;;
6757;SDS011;3416;53.074;8.822;2023-01-30T08:24:57;18.60;;;5.28;;
6757;SDS011;3416;53.074;8.822;2023-01-30T08:27:24;20.05;;;6.32;;
6757;SDS011;3416;53.074;8.822;2023-01-30T08:29:51;15.55;;;5.18;;
6757;SDS011;3416;53.074;8.822;2023-01-30T08:32:18;20.48;;;5.13;;
6757;SDS011;3416;53.074;8.822;2023-01-30T08:34:44;20.20;;;4.28;;
6757;SDS011;3416;53.074;8.822;2023-01-30T08:37:11;16.17;;;5.05;;
6757;SDS011;3416;53.074;8.822;2023-01-30T08:39:38;22.13;;;5.40;;
6757;SDS011;3416;53.074;8.822;2023-01-30T08:42:07;14.45;;;5.70;;
6757;SDS011;3416;53.074;8.822;2023-01-30T08:44:33;22.13;;;5.00;;
6757;SDS011;3416;53.074;8.822;2023-01-30T08:47:00;17.95;;;4.93;;
6757;SDS011;3416;53.074;8.822;2023-01-30T08:49:27;21.38;;;5.35;;
6757;SDS011;3416;53.074;8.822;2023-01-30T08:51:54;17.33;;;5.85;;
6757;SDS011;3416;53.074;8.822;2023-01-30T08:54:21;34.58;;;6.53;;
6757;SDS011;3416;53.074;8.822;2023-01-30T08:56:49;21.40;;;5.05;;
6757;SDS011;3416;53.074;8.822;2023-01-30T08:59:17;20.50;;;6.55;;
6757;SDS011;3416;53.074;8.822;2023-01-30T09:01:45;20.08;;;4.75;;
6757;SDS011;3416;53.074;8.822;2023-01-30T09:04:12;14.90;;;4.25;;
6757;SDS011;3416;53.074;8.822;2023-01-30T09:06:39;21.52;;;6.80;;
6757;SDS011;3416;53.074;8.822;2023-01-30T09:09:06;21.02;;;4.65;;
6757;SDS011;3416;53.074;8.822;2023-01-30T09:11:45;20.75;;;5.22;;
6757;SDS011;3416;53.074;8.822;2023-01-30T09:14:12;20.30;;;4.00;;
6757;SDS011;3416;53.074;8.822;2023-01-30T09:16:45;26.08;;;6.55;;
6757;SDS011;3416;53.074;8.822;2023-01-30T09:19:12;19.23;;;6.15;;
6757;SDS011;3416;53.074;8.822;2023-01-30T09:21:39;28.05;;;4.55;;
6757;SDS011;3416;53.074;8.822;2023-01-30T09:24:06;15.30;;;4.28;;
6757;SDS011;3416;53.074;8.822;2023-01-30T09:26:33;14.52;;;4.25;;
6757;SDS011;3416;53.074;8.822;2023-01-30T09:29:00;24.77;;;4.75;;
6757;SDS011;3416;53.074;8.822;2023-01-30T09:31:27;27.30;;;6.25;;
6757;SDS011;3416;53.074;8.822;2023-01-30T09:33:55;17.42;;;5.55;;
6757;SDS011;3416;53.074;8.822;2023-01-30T09:36:22;24.33;;;4.40;;
6757;SDS011;3416;53.074;8.822;2023-01-30T09:38:49;17.95;;;6.13;;
6757;SDS011;3416;53.074;8.822;2023-01-30T09:41:25;17.60;;;4.57;;
6757;SDS011;3416;53.074;8.822;2023-01-30T09:44:16;21.23;;;5.40;;
6757;SDS011;3416;53.074;8.822;2023-01-30T09:47:10;17.95;;;4.00;;
6757;SDS011;3416;53.074;8.822;2023-01-30T09:49:42;11.65;;;4.38;;
6757;SDS011;3416;53.074;8.822;2023-01-30T09:52:23;9.80;;;3.95;;
6757;SDS011;3416;53.074;8.822;2023-01-30T09:54:58;15.57;;;4.25;;
6757;SDS011;3416;53.074;8.822;2023-01-30T10:26:06;17.77;;;3.58;;
6757;SDS011;3416;53.074;8.822;2023-01-30T10:36:32;26.48;;;7.07;;
6757;SDS011;3416;53.074;8.822;2023-01-30T10:39:33;26.80;;;4.35;;
6757;SDS011;3416;53.074;8.822;2023-01-30T10:42:28;21.38;;;4.10;;
6757;SDS011;3416;53.074;8.822;2023-01-30T10:45:41;22.98;;;4.82;;
6757;SDS011;3416;53.074;8.822;2023-01-30T10:51:39;13.90;;;3.58;;
6757;SDS011;3416;53.074;8.822;2023-01-30T10:54:53;15.32;;;3.33;;
6757;SDS011;3416;53.074;8.822;2023-01-30T11:05:29;11.85;;;3.25;;
6757;SDS011;3416;53.074;8.822;2023-01-30T11:08:28;18.13;;;3.33;;
6757;SDS011;3416;53.074;8.822;2023-01-30T11:52:02;26.58;;;4.68;;
6757;SDS011;3416;53.074;8.822;2023-01-30T11:54:47;17.58;;;5.25;;
6757;SDS011;3416;53.074;8.822;2023-01-30T11:57:30;22.15;;;5.05;;
6757;SDS011;3416;53.074;8.822;2023-01-30T12:00:18;14.45;;;4.78;;
6757;SDS011;3416;53.074;8.822;2023-01-30T12:03:18;25.10;;;4.57;;
6757;SDS011;3416;53.074;8.822;2023-01-30T12:51:51;18.92;;;4.95;;
6757;SDS011;3416;53.074;8.822;2023-01-30T12:54:35;16.08;;;4.85;;
6757;SDS011;3416;53.074;8.822;2023-01-30T12:57:13;9.77;;;3.92;;
6757;SDS011;3416;53.074;8.822;2023-01-30T12:59:51;20.70;;;5.47;;
6757;SDS011;3416;53.074;8.822;2023-01-30T13:02:33;11.95;;;3.40;;
6757;SDS011;3416;53.074;8.822;2023-01-30T13:05:16;19.55;;;4.88;;
6757;SDS011;3416;53.074;8.822;2023-01-30T13:07:56;21.25;;;4.20;;
6757;SDS011;3416;53.074;8.822;2023-01-30T13:10:33;19.15;;;4.43;;
6757;SDS011;3416;53.074;8.822;2023-01-30T13:13:08;18.35;;;4.55;;
6757;SDS011;3416;53.074;8.822;2023-01-30T13:15:44;14.35;;;4.60;;
6757;SDS011;3416;53.074;8.822;2023-01-30T13:18:17;16.45;;;3.88;;
6757;SDS011;3416;53.074;8.822;2023-01-30T13:20:51;14.43;;;3.05;;
6757;SDS011;3416;53.074;8.822;2023-01-30T13:23:27;12.05;;;4.05;;
6757;SDS011;3416;53.074;8.822;2023-01-30T13:26:06;17.52;;;2.75;;
6757;SDS011;3416;53.074;8.822;2023-01-30T13:28:36;11.27;;;3.75;;
6757;SDS011;3416;53.074;8.822;2023-01-30T13:31:05;16.92;;;3.42;;
6757;SDS011;3416;53.074;8.822;2023-01-30T13:33:36;16.48;;;2.88;;
6757;SDS011;3416;53.074;8.822;2023-01-30T13:36:09;11.25;;;4.03;;
6757;SDS011;3416;53.074;8.822;2023-01-30T13:38:43;16.77;;;4.47;;
6757;SDS011;3416;53.074;8.822;2023-01-30T13:41:18;9.63;;;3.00;;
6757;SDS011;3416;53.074;8.822;2023-01-30T13:43:47;18.73;;;4.15;;
6757;SDS011;3416;53.074;8.822;2023-01-30T13:46:18;16.15;;;5.50;;
6757;SDS011;3416;53.074;8.822;2023-01-30T13:48:54;15.85;;;3.55;;
6757;SDS011;3416;53.074;8.822;2023-01-30T13:51:39;8.38;;;3.50;;
6757;SDS011;3416;53.074;8.822;2023-01-30T13:57:07;17.35;;;2.78;;
6757;SDS011;3416;53.074;8.822;2023-01-30T14:00:02;18.92;;;3.22;;
6757;SDS011;3416;53.074;8.822;2023-01-30T14:06:00;9.65;;;3.38;;
6757;SDS011;3416;53.074;8.822;2023-01-30T14:08:28;17.67;;;3.90;;
6757;SDS011;3416;53.074;8.822;2023-01-30T14:11:00;9.00;;;3.70;;
6757;SDS011;3416;53.074;8.822;2023-01-30T14:13:27;21.10;;;4.35;;
6757;SDS011;3416;53.074;8.822;2023-01-30T14:15:55;22.25;;;4.28;;
6757;SDS011;3416;53.074;8.822;2023-01-30T14:18:29;17.42;;;4.05;;
6757;SDS011;3416;53.074;8.822;2023-01-30T14:23:52;17.25;;;4.90;;
6757;SDS011;3416;53.074;8.822;2023-01-30T14:35:24;13.90;;;4.15;;
6757;SDS011;3416;53.074;8.822;2023-01-30T14:40:38;21.48;;;5.80;;
6757;SDS011;3416;53.074;8.822;2023-01-30T14:49:17;16.63;;;4.28;;
6757;SDS011;3416;53.074;8.822;2023-01-30T14:51:49;22.70;;;4.88;;
6757;SDS011;3416;53.074;8.822;2023-01-30T14:54:21;21.50;;;4.10;;
6757;SDS011;3416;53.074;8.822;2023-01-30T14:56:54;21.58;;;4.85;;
6757;SDS011;3416;53.074;8.822;2023-01-30T14:59:24;19.67;;;4.85;;
6757;SDS011;3416;53.074;8.822;2023-01-30T15:02:03;15.85;;;4.75;;
6757;SDS011;3416;53.074;8.822;2023-01-30T15:04:45;23.15;;;6.47;;
6757;SDS011;3416;53.074;8.822;2023-01-30T15:07:16;19.60;;;5.78;;
6757;SDS011;3416;53.074;8.822;2023-01-30T15:09:49;11.48;;;3.95;;
6757;SDS011;3416;53.074;8.822;2023-01-30T15:12:24;22.90;;;4.78;;
6757;SDS011;3416;53.074;8.822;2023-01-30T15:15:08;24.00;;;5.75;;
6757;SDS011;3416;53.074;8.822;2023-01-30T15:17:47;12.73;;;3.33;;
6757;SDS011;3416;53.074;8.822;2023-01-30T15:20:27;27.17;;;4.50;;
6757;SDS011;3416;53.074;8.822;2023-01-30T15:23:11;9.10;;;2.85;;
6757;SDS011;3416;53.074;8.822;2023-01-30T15:25:56;12.20;;;3.05;;
6757;SDS011;3416;53.074;8.822;2023-01-30T15:28:35;14.73;;;2.72;;
6757;SDS011;3416;53.074;8.822;2023-01-30T15:31:08;14.05;;;4.35;;
6757;SDS011;3416;53.074;8.822;2023-01-30T15:33:46;15.57;;;4.43;;
6757;SDS011;3416;53.074;8.822;2023-01-30T15:36:24;25.35;;;6.72;;
6757;SDS011;3416;53.074;8.822;2023-01-30T15:38:57;22.90;;;4.57;;
6757;SDS011;3416;53.074;8.822;2023-01-30T15:41:24;18.63;;;4.65;;
6757;SDS011;3416;53.074;8.822;2023-01-30T15:43:58;32.10;;;6.00;;
6757;SDS011;3416;53.074;8.822;2023-01-30T15:46:44;21.63;;;4.28;;
6757;SDS011;3416;53.074;8.822;2023-01-30T15:49:32;21.42;;;5.55;;
6757;SDS011;3416;53.074;8.822;2023-01-30T15:52:11;21.38;;;6.20;;
6757;SDS011;3416;53.074;8.822;2023-01-30T16:03:17;15.60;;;4.68;;
6757;SDS011;3416;53.074;8.822;2023-01-30T16:05:59;20.77;;;5.75;;
6757;SDS011;3416;53.074;8.822;2023-01-30T16:11:38;23.98;;;5.47;;
6757;SDS011;3416;53.074;8.822;2023-01-30T16:17:29;13.05;;;3.42;;
6757;SDS011;3416;53.074;8.822;2023-01-30T16:19:57;12.43;;;4.32;;
6757;SDS011;3416;53.074;8.822;2023-01-30T16:22:29;19.35;;;4.60;;
6757;SDS011;3416;53.074;8.822;2023-01-30T16:24:59;16.23;;;3.67;;
6757;SDS011;3416;53.074;8.822;2023-01-30T16:27:30;9.30;;;3.25;;
6757;SDS011;3416;53.074;8.822;2023-01-30T16:29:59;16.52;;;4.00;;
6757;SDS011;3416;53.074;8.822;2023-01-30T16:32:30;15.82;;;4.35;;
6757;SDS011;3416;53.074;8.822;2023-01-30T16:35:13;12.80;;;3.92;;
6757;SDS011;3416;53.074;8.822;2023-01-30T16:37:43;14.73;;;5.28;;
6757;SDS011;3416;53.074;8.822;2023-01-30T16:40:11;17.88;;;4.05;;
6757;SDS011;3416;53.074;8.822;2023-01-30T16:42:40;15.00;;;3.90;;
6757;SDS011;3416;53.074;8.822;2023-01-30T16:48:29;19.27;;;4.25;;
6757;SDS011;3416;53.074;8.822;2023-01-30T16:51:11;19.58;;;6.03;;
6757;SDS011;3416;53.074;8.822;2023-01-30T16:53:47;20.55;;;6.00;;
6757;SDS011;3416;53.074;8.822;2023-01-30T16:56:26;23.10;;;7.07;;
6757;SDS011;3416;53.074;8.822;2023-01-30T16:58:56;17.08;;;4.25;;
6757;SDS011;3416;53.074;8.822;2023-01-30T17:01:37;14.18;;;4.32;;
6757;SDS011;3416;53.074;8.822;2023-01-30T17:04:07;19.10;;;4.43;;
6757;SDS011;3416;53.074;8.822;2023-01-30T17:06:42;22.85;;;4.30;;
6757;SDS011;3416;53.074;8.822;2023-01-30T17:17:56;10.98;;;3.50;;
6757;SDS011;3416;53.074;8.822;2023-01-30T17:20:23;19.42;;;5.97;;
6757;SDS011;3416;53.074;8.822;2023-01-30T17:22:57;10.45;;;2.97;;
6757;SDS011;3416;53.074;8.822;2023-01-30T17:25:31;11.38;;;3.80;;
6757;SDS011;3416;53.074;8.822;2023-01-30T17:28:03;18.35;;;3.75;;
6757;SDS011;3416;53.074;8.822;2023-01-30T17:30:31;17.83;;;4.35;;
6757;SDS011;3416;53.074;8.822;2023-01-30T17:32:58;15.80;;;3.60;;
6757;SDS011;3416;53.074;8.822;2023-01-30T17:35:26;17.77;;;4.55;;
6757;SDS011;3416;53.074;8.822;2023-01-30T17:37:54;22.30;;;6.35;;
6757;SDS011;3416;53.074;8.822;2023-01-30T17:40:23;17.25;;;3.95;;
6757;SDS011;3416;53.074;8.822;2023-01-30T17:42:59;16.75;;;5.15;;
6757;SDS011;3416;53.074;8.822;2023-01-30T17:45:27;16.98;;;4.38;;
6757;SDS011;3416;53.074;8.822;2023-01-30T17:47:54;17.27;;;4.63;;
6757;SDS011;3416;53.074;8.822;2023-01-30T17:50:21;9.95;;;2.78;;
6757;SDS011;3416;53.074;8.822;2023-01-30T17:52:48;20.45;;;4.50;;
6757;SDS011;3416;53.074;8.822;2023-01-30T17:55:15;20.05;;;4.00;;
6757;SDS011;3416;53.074;8.822;2023-01-30T17:57:42;18.13;;;4.20;;
6757;SDS011;3416;53.074;8.822;2023-01-30T18:00:15;15.15;;;4.15;;
6757;SDS011;3416;53.074;8.822;2023-01-30T18:02:44;24.15;;;4.60;;
6757;SDS011;3416;53.074;8.822;2023-01-30T18:05:12;16.45;;;4.70;;
6757;SDS011;3416;53.074;8.822;2023-01-30T18:07:42;19.23;;;4.10;;
6757;SDS011;3416;53.074;8.822;2023-01-30T18:10:11;20.48;;;4.65;;
6757;SDS011;3416;53.074;8.822;2023-01-30T18:12:40;32.97;;;5.78;;
6757;SDS011;3416;53.074;8.822;2023-01-30T18:15:11;23.02;;;3.53;;
6757;SDS011;3416;53.074;8.822;2023-01-30T18:17:42;11.07;;;3.40;;
6757;SDS011;3416;53.074;8.822;2023-01-30T18:20:11;20.20;;;7.25;;
6757;SDS011;3416;53.074;8.822;2023-01-30T18:22:40;16.15;;;4.68;;
6757;SDS011;3416;53.074;8.822;2023-01-30T18:25:07;17.73;;;5.18;;
6757;SDS011;3416;53.074;8.822;2023-01-30T18:27:38;17.65;;;5.25;;
6757;SDS011;3416;53.074;8.822;2023-01-30T18:30:08;20.88;;;3.53;;
6757;SDS011;3416;53.074;8.822;2023-01-30T18:32:36;12.52;;;3.58;;
6757;SDS011;3416;53.074;8.822;2023-01-30T18:35:11;17.55;;;3.92;;
6757;SDS011;3416;53.074;8.822;2023-01-30T18:37:39;20.17;;;4.20;;
6757;SDS011;3416;53.074;8.822;2023-01-30T18:40:13;21.30;;;4.28;;